sensor_id;sensor_type;location;lat;lon;timestamp;pressure;altitude;pressure_sealevel;temperature;humidity
24486;BME280;13449;49.374;8.584;2023-02-11T00:01:27;102660.22;;;-1.62;99.85
24486;BME280;13449;49.374;8.584;2023-02-11T00:03:58;102660.78;;;-1.77;99.14
24486;BME280;13449;49.374;8.584;2023-02-11T00:06:34;102659.84;;;-1.76;100.00
24486;BME280;13449;49.374;8.584;2023-02-11T00:09:00;102658.88;;;-1.74;100.00
24486;BME280;13449;49.374;8.584;2023-02-11T00:11:27;102659.75;;;-1.73;99.49
24486;BME280;13449;49.374;8.584;2023-02-11T00:14:03;102653.28;;;-1.68;100.00
24486;BME280;13449;49.374;8.584;2023-02-11T00:16:30;102655.00;;;-1.65;100.00
24486;BME280;13449;49.374;8.584;2023-02-11T00:18:59;102650.28;;;-1.59;99.99
24486;BME280;13449;49.374;8.584;2023-02-11T00:21:33;102646.19;;;-1.44;99.96
24486;BME280;13449;49.374;8.584;2023-02-11T00:24:04;102648.03;;;-1.46;99.65
24486;BME280;13449;49.374;8.584;2023-02-11T00:26:34;102641.75;;;-1.45;99.35
24486;BME280;13449;49.374;8.584;2023-02-11T00:29:03;102637.81;;;-1.35;99.19
24486;BME280;13449;49.374;8.584;2023-02-11T00:31:33;102633.44;;;-1.37;98.93
24486;BME280;13449;49.374;8.584;2023-02-11T00:34:00;102633.72;;;-1.20;98.31
24486;BME280;13449;49.374;8.584;2023-02-11T00:36:30;102628.28;;;-1.19;98.22
24486;BME280;13449;49.374;8.584;2023-02-11T00:38:58;102634.50;;;-1.18;97.71
24486;BME280;13449;49.374;8.584;2023-02-11T00:41:30;102634.81;;;-1.03;97.74
24486;BME280;13449;49.374;8.584;2023-02-11T00:44:00;102628.53;;;-1.02;97.46
24486;BME280;13449;49.374;8.584;2023-02-11T00:46:35;102633.63;;;-0.95;97.48
24486;BME280;13449;49.374;8.584;2023-02-11T00:49:07;102636.31;;;-0.95;96.69
24486;BME280;13449;49.374;8.584;2023-02-11T00:51:39;102631.66;;;-0.90;96.99
24486;BME280;13449;49.374;8.584;2023-02-11T00:54:06;102631.56;;;-0.89;96.76
24486;BME280;13449;49.374;8.584;2023-02-11T00:56:32;102623.38;;;-0.84;96.46
24486;BME280;13449;49.374;8.584;2023-02-11T00:58:59;102624.38;;;-0.87;96.31
24486;BME280;13449;49.374;8.584;2023-02-11T01:01:25;102625.13;;;-0.83;96.30
24486;BME280;13449;49.374;8.584;2023-02-11T01:03:52;102621.44;;;-0.81;95.86
24486;BME280;13449;49.374;8.584;2023-02-11T01:06:19;102624.94;;;-0.79;95.74
24486;BME280;13449;49.374;8.584;2023-02-11T01:08:45;102625.41;;;-0.68;95.30
24486;BME280;13449;49.374;8.584;2023-02-11T01:11:18;102619.91;;;-0.65;95.47
24486;BME280;13449;49.374;8.584;2023-02-11T01:13:45;102614.69;;;-0.68;95.43
24486;BME280;13449;49.374;8.584;2023-02-11T01:16:14;102616.34;;;-0.65;94.66
24486;BME280;13449;49.374;8.584;2023-02-11T01:18:45;102615.84;;;-0.75;95.12
24486;BME280;13449;49.374;8.584;2023-02-11T01:21:12;102614.97;;;-0.75;95.59
24486;BME280;13449;49.374;8.584;2023-02-11T01:23:42;102616.91;;;-0.79;95.32
24486;BME280;13449;49.374;8.584;2023-02-11T01:26:11;102615.22;;;-0.81;95.68
24486;BME280;13449;49.374;8.584;2023-02-11T01:28:37;102618.63;;;-0.78;95.32
24486;BME280;13449;49.374;8.584;2023-02-11T01:31:05;102613.53;;;-0.84;95.47
24486;BME280;13449;49.374;8.584;2023-02-11T01:33:33;102618.59;;;-0.76;95.87
24486;BME280;13449;49.374;8.584;2023-02-11T01:36:10;102610.44;;;-0.73;94.88
24486;BME280;13449;49.374;8.584;2023-02-11T01:38:37;102612.97;;;-0.70;95.16
24486;BME280;13449;49.374;8.584;2023-02-11T01:41:09;102611.13;;;-0.68;95.13
24486;BME280;13449;49.374;8.584;2023-02-11T01:43:46;102608.94;;;-0.59;94.83
24486;BME280;13449;49.374;8.584;2023-02-11T01:46:34;102613.19;;;-0.53;94.23
24486;BME280;13449;49.374;8.584;2023-02-11T01:49:14;102602.25;;;-0.49;93.86
24486;BME280;13449;49.374;8.584;2023-02-11T01:54:23;102605.66;;;-0.45;93.14
24486;BME280;13449;49.374;8.584;2023-02-11T01:57:16;102598.31;;;-0.40;93.66
24486;BME280;13449;49.374;8.584;2023-02-11T01:59:55;102603.69;;;-0.40;93.41
24486;BME280;13449;49.374;8.584;2023-02-11T02:05:32;102589.78;;;-0.28;92.40
24486;BME280;13449;49.374;8.584;2023-02-11T02:08:24;102593.34;;;-0.27;92.35
24486;BME280;13449;49.374;8.584;2023-02-11T02:11:05;102575.44;;;-0.27;92.91
24486;BME280;13449;49.374;8.584;2023-02-11T02:13:39;102568.28;;;-0.26;92.51
24486;BME280;13449;49.374;8.584;2023-02-11T02:16:11;102565.38;;;-0.22;92.08
24486;BME280;13449;49.374;8.584;2023-02-11T02:19:03;102568.94;;;-0.21;92.05
24486;BME280;13449;49.374;8.584;2023-02-11T02:27:55;102560.94;;;-0.43;93.38
24486;BME280;13449;49.374;8.584;2023-02-11T02:34:06;102551.59;;;-0.55;93.76
24486;BME280;13449;49.374;8.584;2023-02-11T02:36:43;102547.25;;;-0.57;94.34
24486;BME280;13449;49.374;8.584;2023-02-11T02:39:28;102533.91;;;-0.59;94.72
24486;BME280;13449;49.374;8.584;2023-02-11T02:41:59;102532.25;;;-0.61;95.61
24486;BME280;13449;49.374;8.584;2023-02-11T02:44:30;102542.97;;;-0.61;95.68
24486;BME280;13449;49.374;8.584;2023-02-11T02:46:59;102528.88;;;-0.66;95.28
24486;BME280;13449;49.374;8.584;2023-02-11T02:49:28;102511.47;;;-0.56;95.90
24486;BME280;13449;49.374;8.584;2023-02-11T02:52:15;102525.69;;;-0.54;96.13
24486;BME280;13449;49.374;8.584;2023-02-11T02:58:24;102519.59;;;-0.58;96.56
24486;BME280;13449;49.374;8.584;2023-02-11T03:07:13;102519.41;;;-0.53;96.01
24486;BME280;13449;49.374;8.584;2023-02-11T03:09:50;102521.34;;;-0.57;96.11
24486;BME280;13449;49.374;8.584;2023-02-11T03:12:23;102526.72;;;-0.57;96.38
24486;BME280;13449;49.374;8.584;2023-02-11T03:14:54;102535.81;;;-0.61;95.85
24486;BME280;13449;49.374;8.584;2023-02-11T03:17:22;102531.97;;;-0.55;96.30
24486;BME280;13449;49.374;8.584;2023-02-11T03:19:50;102531.97;;;-0.55;96.29
24486;BME280;13449;49.374;8.584;2023-02-11T03:22:40;102526.28;;;-0.47;96.87
24486;BME280;13449;49.374;8.584;2023-02-11T03:25:22;102527.78;;;-0.40;97.11
24486;BME280;13449;49.374;8.584;2023-02-11T03:28:11;102535.06;;;-0.44;96.84
24486;BME280;13449;49.374;8.584;2023-02-11T03:30:48;102541.31;;;-0.43;97.07
24486;BME280;13449;49.374;8.584;2023-02-11T03:33:29;102534.88;;;-0.39;97.18
24486;BME280;13449;49.374;8.584;2023-02-11T03:36:03;102530.78;;;-0.48;97.04
24486;BME280;13449;49.374;8.584;2023-02-11T03:38:37;102544.44;;;-0.54;97.92
24486;BME280;13449;49.374;8.584;2023-02-11T03:41:08;102548.78;;;-0.52;97.00
24486;BME280;13449;49.374;8.584;2023-02-11T03:43:45;102552.03;;;-0.43;97.96
24486;BME280;13449;49.374;8.584;2023-02-11T03:46:18;102551.44;;;-0.30;97.69
24486;BME280;13449;49.374;8.584;2023-02-11T03:48:58;102547.69;;;-0.26;96.87
24486;BME280;13449;49.374;8.584;2023-02-11T03:51:33;102530.00;;;-0.30;97.50
24486;BME280;13449;49.374;8.584;2023-02-11T03:54:04;102525.59;;;-0.31;97.42
24486;BME280;13449;49.374;8.584;2023-02-11T03:56:47;102518.09;;;-0.23;98.04
24486;BME280;13449;49.374;8.584;2023-02-11T03:59:15;102511.91;;;-0.25;97.37
24486;BME280;13449;49.374;8.584;2023-02-11T04:01:41;102511.78;;;-0.22;97.18
24486;BME280;13449;49.374;8.584;2023-02-11T04:04:10;102509.97;;;-0.21;97.07
24486;BME280;13449;49.374;8.584;2023-02-11T04:06:39;102526.19;;;-0.24;96.80
24486;BME280;13449;49.374;8.584;2023-02-11T04:09:05;102519.75;;;-0.20;97.26
24486;BME280;13449;49.374;8.584;2023-02-11T04:11:32;102524.03;;;-0.16;96.60
24486;BME280;13449;49.374;8.584;2023-02-11T04:13:59;102507.88;;;-0.15;97.79
24486;BME280;13449;49.374;8.584;2023-02-11T04:16:28;102507.75;;;-0.12;96.83
24486;BME280;13449;49.374;8.584;2023-02-11T04:18:56;102502.91;;;-0.04;97.04
24486;BME280;13449;49.374;8.584;2023-02-11T04:21:23;102495.75;;;-0.03;95.99
24486;BME280;13449;49.374;8.584;2023-02-11T04:23:49;102500.03;;;0.01;96.50
24486;BME280;13449;49.374;8.584;2023-02-11T04:26:19;102498.06;;;0.05;96.38
24486;BME280;13449;49.374;8.584;2023-02-11T04:28:46;102487.34;;;0.05;95.98
24486;BME280;13449;49.374;8.584;2023-02-11T04:31:12;102486.28;;;0.09;97.56
24486;BME280;13449;49.374;8.584;2023-02-11T04:33:43;102483.44;;;0.12;96.73
24486;BME280;13449;49.374;8.584;2023-02-11T04:36:10;102482.50;;;0.13;97.05
24486;BME280;13449;49.374;8.584;2023-02-11T04:38:42;102479.81;;;0.13;96.13
24486;BME280;13449;49.374;8.584;2023-02-11T04:41:11;102486.00;;;0.15;96.18
24486;BME280;13449;49.374;8.584;2023-02-11T04:43:39;102477.97;;;0.15;95.86
24486;BME280;13449;49.374;8.584;2023-02-11T04:46:08;102472.88;;;0.09;96.49
24486;BME280;13449;49.374;8.584;2023-02-11T04:48:35;102463.16;;;0.06;96.64
24486;BME280;13449;49.374;8.584;2023-02-11T04:51:08;102450.69;;;0.05;97.62
24486;BME280;13449;49.374;8.584;2023-02-11T04:53:37;102455.59;;;-0.05;97.24
24486;BME280;13449;49.374;8.584;2023-02-11T04:56:04;102451.97;;;-0.04;97.42
24486;BME280;13449;49.374;8.584;2023-02-11T04:58:38;102453.28;;;-0.12;96.66
24486;BME280;13449;49.374;8.584;2023-02-11T05:01:10;102449.44;;;-0.07;97.30
24486;BME280;13449;49.374;8.584;2023-02-11T05:03:38;102447.72;;;-0.08;97.95
24486;BME280;13449;49.374;8.584;2023-02-11T05:06:10;102461.50;;;-0.17;98.00
24486;BME280;13449;49.374;8.584;2023-02-11T05:08:37;102467.16;;;-0.23;98.21
24486;BME280;13449;49.374;8.584;2023-02-11T05:11:09;102473.69;;;-0.30;97.39
24486;BME280;13449;49.374;8.584;2023-02-11T05:13:47;102474.53;;;-0.28;97.94
24486;BME280;13449;49.374;8.584;2023-02-11T05:16:15;102479.00;;;-0.28;98.46
24486;BME280;13449;49.374;8.584;2023-02-11T05:18:43;102483.25;;;-0.23;98.47
24486;BME280;13449;49.374;8.584;2023-02-11T05:21:15;102490.88;;;-0.34;98.07
24486;BME280;13449;49.374;8.584;2023-02-11T05:23:43;102498.78;;;-0.31;98.65
24486;BME280;13449;49.374;8.584;2023-02-11T05:26:12;102510.03;;;-0.43;98.39
24486;BME280;13449;49.374;8.584;2023-02-11T05:28:44;102512.72;;;-0.43;98.26
24486;BME280;13449;49.374;8.584;2023-02-11T05:31:11;102498.09;;;-0.36;98.92
24486;BME280;13449;49.374;8.584;2023-02-11T05:33:40;102500.09;;;-0.41;98.96
24486;BME280;13449;49.374;8.584;2023-02-11T05:36:10;102512.13;;;-0.50;98.78
24486;BME280;13449;49.374;8.584;2023-02-11T05:38:39;102512.75;;;-0.44;99.59
24486;BME280;13449;49.374;8.584;2023-02-11T05:41:12;102521.81;;;-0.47;99.84
24486;BME280;13449;49.374;8.584;2023-02-11T05:43:41;102509.47;;;-0.51;99.09
24486;BME280;13449;49.374;8.584;2023-02-11T05:46:10;102490.41;;;-0.43;99.96
24486;BME280;13449;49.374;8.584;2023-02-11T05:48:37;102481.47;;;-0.44;99.99
24486;BME280;13449;49.374;8.584;2023-02-11T05:51:04;102472.72;;;-0.47;99.65
24486;BME280;13449;49.374;8.584;2023-02-11T05:53:35;102473.38;;;-0.42;99.95
24486;BME280;13449;49.374;8.584;2023-02-11T05:56:02;102478.00;;;-0.46;99.42
24486;BME280;13449;49.374;8.584;2023-02-11T05:58:29;102485.31;;;-0.50;99.79
24486;BME280;13449;49.374;8.584;2023-02-11T06:00:59;102490.72;;;-0.51;99.86
24486;BME280;13449;49.374;8.584;2023-02-11T06:03:26;102499.31;;;-0.43;99.84
24486;BME280;13449;49.374;8.584;2023-02-11T06:05:53;102501.38;;;-0.50;99.84
24486;BME280;13449;49.374;8.584;2023-02-11T06:08:27;102495.47;;;-0.37;100.00
24486;BME280;13449;49.374;8.584;2023-02-11T06:10:53;102487.25;;;-0.33;99.87
24486;BME280;13449;49.374;8.584;2023-02-11T06:13:20;102479.19;;;-0.33;99.64
24486;BME280;13449;49.374;8.584;2023-02-11T06:15:57;102486.47;;;-0.35;99.92
24486;BME280;13449;49.374;8.584;2023-02-11T06:18:24;102486.66;;;-0.39;99.16
24486;BME280;13449;49.374;8.584;2023-02-11T06:20:53;102486.84;;;-0.24;99.17
24486;BME280;13449;49.374;8.584;2023-02-11T06:23:20;102473.06;;;-0.35;98.55
24486;BME280;13449;49.374;8.584;2023-02-11T06:25:51;102472.00;;;-0.31;99.69
24486;BME280;13449;49.374;8.584;2023-02-11T06:28:19;102468.47;;;-0.33;99.28
24486;BME280;13449;49.374;8.584;2023-02-11T06:30:45;102469.69;;;-0.40;98.92
24486;BME280;13449;49.374;8.584;2023-02-11T06:33:12;102464.19;;;-0.37;99.35
24486;BME280;13449;49.374;8.584;2023-02-11T06:35:38;102473.31;;;-0.41;99.43
24486;BME280;13449;49.374;8.584;2023-02-11T06:38:07;102468.28;;;-0.49;99.85
24486;BME280;13449;49.374;8.584;2023-02-11T06:40:34;102479.31;;;-0.56;100.00
24486;BME280;13449;49.374;8.584;2023-02-11T06:43:01;102479.59;;;-0.62;99.82
24486;BME280;13449;49.374;8.584;2023-02-11T06:45:27;102491.88;;;-0.57;100.00
24486;BME280;13449;49.374;8.584;2023-02-11T06:47:59;102490.88;;;-0.54;100.00
24486;BME280;13449;49.374;8.584;2023-02-11T06:50:26;102497.28;;;-0.58;100.00
24486;BME280;13449;49.374;8.584;2023-02-11T06:52:53;102501.44;;;-0.51;100.00
24486;BME280;13449;49.374;8.584;2023-02-11T06:55:22;102510.00;;;-0.63;100.00
24486;BME280;13449;49.374;8.584;2023-02-11T06:57:49;102517.28;;;-0.67;100.00
24486;BME280;13449;49.374;8.584;2023-02-11T07:00:16;102507.88;;;-0.55;100.00
24486;BME280;13449;49.374;8.584;2023-02-11T07:02:42;102505.78;;;-0.69;100.00
24486;BME280;13449;49.374;8.584;2023-02-11T07:05:09;102506.78;;;-0.71;100.00
24486;BME280;13449;49.374;8.584;2023-02-11T07:07:36;102507.72;;;-0.72;100.00
24486;BME280;13449;49.374;8.584;2023-02-11T07:10:03;102506.72;;;-0.70;100.00
24486;BME280;13449;49.374;8.584;2023-02-11T07:12:31;102505.69;;;-0.67;100.00
24486;BME280;13449;49.374;8.584;2023-02-11T07:14:57;102504.84;;;-0.68;100.00
24486;BME280;13449;49.374;8.584;2023-02-11T07:17:26;102504.91;;;-0.69;100.00
24486;BME280;13449;49.374;8.584;2023-02-11T07:19:57;102498.94;;;-0.76;100.00
24486;BME280;13449;49.374;8.584;2023-02-11T07:22:24;102492.75;;;-0.78;100.00
24486;BME280;13449;49.374;8.584;2023-02-11T07:24:50;102507.03;;;-0.77;100.00
24486;BME280;13449;49.374;8.584;2023-02-11T07:27:19;102503.00;;;-0.87;100.00
24486;BME280;13449;49.374;8.584;2023-02-11T07:29:46;102498.44;;;-0.85;100.00
24486;BME280;13449;49.374;8.584;2023-02-11T07:32:13;102509.84;;;-0.80;100.00
24486;BME280;13449;49.374;8.584;2023-02-11T07:34:40;102510.78;;;-0.81;100.00
24486;BME280;13449;49.374;8.584;2023-02-11T07:37:07;102504.44;;;-0.79;100.00
24486;BME280;13449;49.374;8.584;2023-02-11T07:39:36;102508.00;;;-0.58;100.00
24486;BME280;13449;49.374;8.584;2023-02-11T07:42:05;102510.06;;;-0.65;100.00
24486;BME280;13449;49.374;8.584;2023-02-11T07:44:32;102515.13;;;-0.57;100.00
24486;BME280;13449;49.374;8.584;2023-02-11T07:47:01;102517.06;;;-0.61;100.00
24486;BME280;13449;49.374;8.584;2023-02-11T07:49:28;102506.13;;;-0.56;100.00
24486;BME280;13449;49.374;8.584;2023-02-11T07:51:54;102508.75;;;-0.55;100.00
24486;BME280;13449;49.374;8.584;2023-02-11T07:54:21;102505.06;;;-0.52;100.00
24486;BME280;13449;49.374;8.584;2023-02-11T07:56:48;102512.84;;;-0.46;100.00
24486;BME280;13449;49.374;8.584;2023-02-11T07:59:14;102502.91;;;-0.44;100.00
24486;BME280;13449;49.374;8.584;2023-02-11T08:01:41;102506.47;;;-0.43;99.94
24486;BME280;13449;49.374;8.584;2023-02-11T08:04:10;102503.47;;;-0.36;100.00
24486;BME280;13449;49.374;8.584;2023-02-11T08:06:40;102505.22;;;-0.35;99.21
24486;BME280;13449;49.374;8.584;2023-02-11T08:09:09;102502.13;;;-0.26;99.17
24486;BME280;13449;49.374;8.584;2023-02-11T08:11:38;102502.78;;;-0.21;98.90
24486;BME280;13449;49.374;8.584;2023-02-11T08:14:04;102505.00;;;-0.10;98.63
24486;BME280;13449;49.374;8.584;2023-02-11T08:16:35;102502.72;;;0.01;98.79
24486;BME280;13449;49.374;8.584;2023-02-11T08:19:04;102500.06;;;0.20;98.39
24486;BME280;13449;49.374;8.584;2023-02-11T08:21:31;102502.41;;;0.46;97.34
24486;BME280;13449;49.374;8.584;2023-02-11T08:24:01;102516.66;;;0.48;96.82
24486;BME280;13449;49.374;8.584;2023-02-11T08:26:30;102504.94;;;0.68;95.91
24486;BME280;13449;49.374;8.584;2023-02-11T08:29:02;102505.44;;;0.94;94.33
24486;BME280;13449;49.374;8.584;2023-02-11T08:31:35;102499.16;;;1.13;93.41
24486;BME280;13449;49.374;8.584;2023-02-11T08:34:02;102489.22;;;1.32;92.52
24486;BME280;13449;49.374;8.584;2023-02-11T08:36:34;102494.88;;;1.44;91.35
24486;BME280;13449;49.374;8.584;2023-02-11T08:39:04;102493.75;;;1.66;90.07
24486;BME280;13449;49.374;8.584;2023-02-11T08:41:45;102498.25;;;1.82;89.48
24486;BME280;13449;49.374;8.584;2023-02-11T08:44:13;102500.84;;;2.01;87.57
24486;BME280;13449;49.374;8.584;2023-02-11T08:46:40;102492.81;;;2.17;88.24
24486;BME280;13449;49.374;8.584;2023-02-11T08:49:06;102501.22;;;2.43;85.32
24486;BME280;13449;49.374;8.584;2023-02-11T08:51:32;102509.13;;;2.47;84.99
24486;BME280;13449;49.374;8.584;2023-02-11T08:53:59;102507.31;;;2.47;85.68
24486;BME280;13449;49.374;8.584;2023-02-11T08:56:29;102515.31;;;2.64;84.97
24486;BME280;13449;49.374;8.584;2023-02-11T08:58:57;102501.75;;;2.81;83.72
24486;BME280;13449;49.374;8.584;2023-02-11T09:01:27;102496.22;;;2.84;83.05
24486;BME280;13449;49.374;8.584;2023-02-11T09:03:55;102500.03;;;2.96;83.09
24486;BME280;13449;49.374;8.584;2023-02-11T09:06:23;102498.44;;;3.08;81.84
24486;BME280;13449;49.374;8.584;2023-02-11T09:08:54;102511.31;;;3.18;81.25
24486;BME280;13449;49.374;8.584;2023-02-11T09:11:30;102508.94;;;3.28;81.26
24486;BME280;13449;49.374;8.584;2023-02-11T09:13:57;102520.69;;;3.27;81.06
24486;BME280;13449;49.374;8.584;2023-02-11T09:16:29;102510.97;;;3.24;80.94
24486;BME280;13449;49.374;8.584;2023-02-11T09:19:00;102517.72;;;3.31;80.69
24486;BME280;13449;49.374;8.584;2023-02-11T09:21:28;102520.13;;;3.52;80.22
24486;BME280;13449;49.374;8.584;2023-02-11T09:23:57;102520.38;;;3.63;79.83
24486;BME280;13449;49.374;8.584;2023-02-11T09:26:26;102529.63;;;3.73;79.25
24486;BME280;13449;49.374;8.584;2023-02-11T09:28:53;102539.22;;;3.78;78.81
24486;BME280;13449;49.374;8.584;2023-02-11T09:31:24;102536.53;;;3.93;78.36
24486;BME280;13449;49.374;8.584;2023-02-11T09:33:53;102541.69;;;4.11;78.17
24486;BME280;13449;49.374;8.584;2023-02-11T09:36:23;102532.06;;;4.21;78.72
24486;BME280;13449;49.374;8.584;2023-02-11T09:38:50;102546.44;;;4.36;76.78
24486;BME280;13449;49.374;8.584;2023-02-11T09:41:32;102542.69;;;4.53;76.54
24486;BME280;13449;49.374;8.584;2023-02-11T09:44:03;102536.31;;;4.68;76.00
24486;BME280;13449;49.374;8.584;2023-02-11T09:46:40;102542.84;;;4.78;75.00
24486;BME280;13449;49.374;8.584;2023-02-11T09:49:17;102547.56;;;4.88;74.99
24486;BME280;13449;49.374;8.584;2023-02-11T09:51:52;102539.44;;;5.03;74.52
24486;BME280;13449;49.374;8.584;2023-02-11T09:57:25;102533.53;;;5.37;73.32
24486;BME280;13449;49.374;8.584;2023-02-11T09:59:55;102542.16;;;5.56;73.08
24486;BME280;13449;49.374;8.584;2023-02-11T10:02:39;102551.19;;;5.69;71.04
24486;BME280;13449;49.374;8.584;2023-02-11T10:07:49;102537.31;;;5.88;70.80
24486;BME280;13449;49.374;8.584;2023-02-11T10:21:45;102542.66;;;6.40;69.87
24486;BME280;13449;49.374;8.584;2023-02-11T10:24:17;102543.97;;;6.47;69.16
24486;BME280;13449;49.374;8.584;2023-02-11T10:26:45;102533.97;;;6.73;70.07
24486;BME280;13449;49.374;8.584;2023-02-11T10:29:32;102521.03;;;6.89;70.05
24486;BME280;13449;49.374;8.584;2023-02-11T10:32:11;102549.31;;;6.98;67.45
24486;BME280;13449;49.374;8.584;2023-02-11T10:34:41;102554.16;;;7.05;67.38
24486;BME280;13449;49.374;8.584;2023-02-11T10:37:11;102543.53;;;7.02;68.06
24486;BME280;13449;49.374;8.584;2023-02-11T10:39:39;102555.34;;;7.14;67.33
24486;BME280;13449;49.374;8.584;2023-02-11T10:42:09;102552.84;;;7.23;66.74
24486;BME280;13449;49.374;8.584;2023-02-11T10:44:44;102560.50;;;7.29;65.77
24486;BME280;13449;49.374;8.584;2023-02-11T10:47:23;102560.19;;;7.34;65.39
24486;BME280;13449;49.374;8.584;2023-02-11T10:49:50;102542.75;;;7.49;66.20
24486;BME280;13449;49.374;8.584;2023-02-11T10:52:21;102532.44;;;7.65;67.06
24486;BME280;13449;49.374;8.584;2023-02-11T10:55:03;102553.53;;;7.62;65.87
24486;BME280;13449;49.374;8.584;2023-02-11T10:57:37;102541.16;;;7.58;66.27
24486;BME280;13449;49.374;8.584;2023-02-11T11:02:44;102533.38;;;7.88;65.86
24486;BME280;13449;49.374;8.584;2023-02-11T11:05:17;102556.47;;;7.83;65.54
24486;BME280;13449;49.374;8.584;2023-02-11T11:08:14;102542.59;;;7.74;65.86
24486;BME280;13449;49.374;8.584;2023-02-11T11:10:43;102541.59;;;7.64;65.74
24486;BME280;13449;49.374;8.584;2023-02-11T11:13:38;102534.31;;;7.41;66.29
24486;BME280;13449;49.374;8.584;2023-02-11T11:18:40;102519.22;;;7.61;67.78
24486;BME280;13449;49.374;8.584;2023-02-11T11:21:17;102532.03;;;7.59;66.61
24486;BME280;13449;49.374;8.584;2023-02-11T11:24:01;102522.63;;;7.75;67.05
24486;BME280;13449;49.374;8.584;2023-02-11T11:26:39;102516.50;;;7.96;67.91
24486;BME280;13449;49.374;8.584;2023-02-11T11:31:48;102525.53;;;8.07;66.91
24486;BME280;13449;49.374;8.584;2023-02-11T11:36:59;102531.31;;;8.03;66.60
24486;BME280;13449;49.374;8.584;2023-02-11T11:39:31;102520.25;;;8.06;67.25
24486;BME280;13449;49.374;8.584;2023-02-11T11:42:02;102552.22;;;7.67;65.34
24486;BME280;13449;49.374;8.584;2023-02-11T11:44:36;102543.63;;;7.50;66.02
24486;BME280;13449;49.374;8.584;2023-02-11T11:50:19;102537.41;;;7.71;66.33
24486;BME280;13449;49.374;8.584;2023-02-11T11:52:45;102543.59;;;7.73;65.91
24486;BME280;13449;49.374;8.584;2023-02-11T11:57:45;102536.69;;;7.81;66.26
24486;BME280;13449;49.374;8.584;2023-02-11T12:05:51;102518.59;;;7.92;65.89
24486;BME280;13449;49.374;8.584;2023-02-11T12:08:33;102518.31;;;7.84;66.70
24486;BME280;13449;49.374;8.584;2023-02-11T12:11:11;102514.13;;;7.91;66.35
24486;BME280;13449;49.374;8.584;2023-02-11T12:16:23;102515.75;;;7.94;66.17
24486;BME280;13449;49.374;8.584;2023-02-11T12:22:24;102511.19;;;7.94;66.39
24486;BME280;13449;49.374;8.584;2023-02-11T12:25:03;102493.75;;;7.86;66.89
24486;BME280;13449;49.374;8.584;2023-02-11T12:33:01;102489.19;;;7.86;67.07
24486;BME280;13449;49.374;8.584;2023-02-11T12:35:35;102476.84;;;7.82;67.05
24486;BME280;13449;49.374;8.584;2023-02-11T12:38:23;102466.31;;;7.77;67.59
24486;BME280;13449;49.374;8.584;2023-02-11T12:43:44;102467.56;;;7.85;67.94
24486;BME280;13449;49.374;8.584;2023-02-11T12:46:32;102481.06;;;7.97;67.39
24486;BME280;13449;49.374;8.584;2023-02-11T12:49:30;102476.88;;;8.04;67.76
24486;BME280;13449;49.374;8.584;2023-02-11T12:54:59;102475.03;;;8.05;67.75
24486;BME280;13449;49.374;8.584;2023-02-11T12:57:30;102481.72;;;8.12;67.38
24486;BME280;13449;49.374;8.584;2023-02-11T13:00:13;102481.22;;;8.18;67.45
24486;BME280;13449;49.374;8.584;2023-02-11T13:03:00;102481.38;;;8.27;66.96
24486;BME280;13449;49.374;8.584;2023-02-11T13:05:38;102463.25;;;8.39;67.76
24486;BME280;13449;49.374;8.584;2023-02-11T13:08:16;102466.69;;;8.63;67.55
24486;BME280;13449;49.374;8.584;2023-02-11T13:10:46;102476.69;;;8.74;66.79
24486;BME280;13449;49.374;8.584;2023-02-11T13:13:20;102478.78;;;8.82;67.04
24486;BME280;13449;49.374;8.584;2023-02-11T13:18:33;102465.63;;;9.09;66.67
24486;BME280;13449;49.374;8.584;2023-02-11T13:23:56;102497.81;;;8.93;65.36
24486;BME280;13449;49.374;8.584;2023-02-11T13:32:14;102499.66;;;9.03;64.71
24486;BME280;13449;49.374;8.584;2023-02-11T13:37:36;102483.94;;;9.18;65.23
24486;BME280;13449;49.374;8.584;2023-02-11T13:42:53;102465.09;;;9.15;65.51
24486;BME280;13449;49.374;8.584;2023-02-11T13:45:35;102469.56;;;9.16;65.47
24486;BME280;13449;49.374;8.584;2023-02-11T13:48:19;102468.88;;;9.35;65.37
24486;BME280;13449;49.374;8.584;2023-02-11T13:50:49;102479.44;;;9.28;65.17
24486;BME280;13449;49.374;8.584;2023-02-11T13:53:22;102481.78;;;9.33;64.45
24486;BME280;13449;49.374;8.584;2023-02-11T13:56:02;102461.84;;;9.32;65.75
24486;BME280;13449;49.374;8.584;2023-02-11T14:00:56;102472.50;;;9.24;64.51
24486;BME280;13449;49.374;8.584;2023-02-11T14:06:16;102478.72;;;9.15;64.74
24486;BME280;13449;49.374;8.584;2023-02-11T14:09:09;102472.56;;;9.02;65.55
24486;BME280;13449;49.374;8.584;2023-02-11T14:17:33;102443.38;;;8.93;66.84
24486;BME280;13449;49.374;8.584;2023-02-11T14:20:02;102436.13;;;8.82;66.94
24486;BME280;13449;49.374;8.584;2023-02-11T14:22:40;102433.78;;;8.78;67.54
24486;BME280;13449;49.374;8.584;2023-02-11T14:25:18;102431.06;;;8.66;67.96
24486;BME280;13449;49.374;8.584;2023-02-11T14:27:52;102434.31;;;8.60;68.48
24486;BME280;13449;49.374;8.584;2023-02-11T14:30:31;102432.09;;;8.54;68.82
24486;BME280;13449;49.374;8.584;2023-02-11T14:33:13;102437.28;;;8.57;68.80
24486;BME280;13449;49.374;8.584;2023-02-11T14:36:06;102439.25;;;8.66;68.60
24486;BME280;13449;49.374;8.584;2023-02-11T14:41:25;102450.88;;;8.57;68.56
24486;BME280;13449;49.374;8.584;2023-02-11T14:44:00;102445.09;;;8.51;68.78
24486;BME280;13449;49.374;8.584;2023-02-11T14:46:36;102447.91;;;8.49;69.05
24486;BME280;13449;49.374;8.584;2023-02-11T14:49:06;102439.41;;;8.43;69.44
24486;BME280;13449;49.374;8.584;2023-02-11T14:51:39;102441.38;;;8.41;69.82
24486;BME280;13449;49.374;8.584;2023-02-11T14:54:13;102454.59;;;8.34;69.75
24486;BME280;13449;49.374;8.584;2023-02-11T14:56:46;102444.69;;;8.33;69.70
24486;BME280;13449;49.374;8.584;2023-02-11T14:59:30;102452.84;;;8.33;69.64
24486;BME280;13449;49.374;8.584;2023-02-11T15:01:59;102450.50;;;8.29;70.04
24486;BME280;13449;49.374;8.584;2023-02-11T15:04:32;102455.06;;;8.28;70.00
24486;BME280;13449;49.374;8.584;2023-02-11T15:07:06;102452.22;;;8.30;70.26
24486;BME280;13449;49.374;8.584;2023-02-11T15:09:45;102457.28;;;8.23;70.60